Time;durP1;ratioP1;P1;durP2;ratioP2;P2;SDS_P1;SDS_P2;PMS_P1;PMS_P2;Temp;Humidity;BMP_temperature;BMP_pressure;BME280_temperature;BME280_humidity;BME280_pressure;Samples;Min_cycle;Max_cycle;Signal;HPM_P1;HPM_P2
2020/12/22 00:00:37;;;;;;;;;;;;;;;27.22;25.21;102068.38;5056401;28;759;-40
2020/12/22 00:03:03;;;;;;;;;;;;;;;27.88;24.12;102062.75;5056253;28;863;-39
2020/12/22 00:05:28;;;;;;;;;;;;;;;27.71;24.32;102065.31;5055857;28;955;-39
2020/12/22 00:07:53;;;;;;;;;;;;;;;27.37;24.86;102072.25;5056433;28;764;-39
2020/12/22 00:10:18;;;;;;;;;;;;;;;27.04;25.45;102073.72;5056123;28;823;-38
2020/12/22 00:12:44;;;;;;;;;;;;;;;27.75;24.43;102076.69;5055781;28;859;-38
2020/12/22 00:15:09;;;;;;;;;;;;;;;27.72;24.60;102077.84;5056220;28;803;-39
2020/12/22 00:17:35;;;;;;;;;;;;;;;27.42;24.76;102069.09;5055808;28;1894;-39
2020/12/22 00:20:00;;;;;;;;;;;;;;;26.75;26.10;102071.00;5055805;28;1548;-38
2020/12/22 00:22:25;;;;;;;;;;;;;;;27.41;25.21;102072.78;5056152;28;883;-39
2020/12/22 00:24:50;;;;;;;;;;;;;;;27.91;24.29;102064.31;5056050;28;748;-39
2020/12/22 00:27:16;;;;;;;;;;;;;;;27.70;24.60;102071.75;5055718;28;836;-39
2020/12/22 00:29:41;;;;;;;;;;;;;;;27.37;24.94;102056.03;5059930;28;776;-39
2020/12/22 00:32:06;;;;;;;;;;;;;;;26.71;26.19;102060.63;5059989;28;739;-35
2020/12/22 00:34:31;;;;;;;;;;;;;;;26.21;26.92;102065.28;5060019;28;848;-38
2020/12/22 00:36:59;;;;;;;;;;;;;;;26.32;26.96;102072.34;5059814;28;1022;-39
2020/12/22 00:39:25;;;;;;;;;;;;;;;27.44;24.97;102075.19;5059800;28;1938;-39
2020/12/22 00:41:56;;;;;;;;;;;;;;;27.36;24.79;102067.00;5059893;28;844;-39
2020/12/22 00:44:22;;;;;;;;;;;;;;;27.28;25.32;102072.31;5068231;28;1152;-39
2020/12/22 00:46:47;;;;;;;;;;;;;;;27.55;25.12;102071.41;5079584;28;898;-39
2020/12/22 00:49:13;;;;;;;;;;;;;;;27.56;25.03;102074.97;5079475;28;849;-39
2020/12/22 00:51:38;;;;;;;;;;;;;;;27.53;24.89;102072.56;5063411;28;963;-39
2020/12/22 00:54:03;;;;;;;;;;;;;;;27.36;25.40;102062.44;5059884;28;772;-39
2020/12/22 00:56:28;;;;;;;;;;;;;;;27.52;25.07;102060.91;5059612;28;1155;-40
2020/12/22 00:58:54;;;;;;;;;;;;;;;27.90;24.75;102063.47;5059447;28;1901;-38
2020/12/22 01:01:19;;;;;;;;;;;;;;;27.71;24.90;102054.50;5059623;28;855;-38
2020/12/22 01:03:45;;;;;;;;;;;;;;;27.47;25.17;102057.81;5059717;28;868;-38
2020/12/22 01:06:10;;;;;;;;;;;;;;;26.98;25.86;102051.69;5058971;28;995;-38
2020/12/22 01:08:35;;;;;;;;;;;;;;;27.59;25.21;102048.47;5059645;28;804;-38
2020/12/22 01:11:01;;;;;;;;;;;;;;;28.03;24.18;102049.53;5059195;28;764;-37
2020/12/22 01:13:26;;;;;;;;;;;;;;;27.73;24.80;102047.09;5059340;28;772;-38
2020/12/22 01:15:51;;;;;;;;;;;;;;;27.46;25.26;102053.44;5059660;28;839;-38
2020/12/22 01:18:17;;;;;;;;;;;;;;;27.47;25.25;102055.97;5058982;28;1965;-38
2020/12/22 01:20:42;;;;;;;;;;;;;;;27.86;24.89;102059.41;5058952;28;967;-38
2020/12/22 01:23:07;;;;;;;;;;;;;;;27.80;24.49;102062.69;5058894;28;792;-38
2020/12/22 01:25:32;;;;;;;;;;;;;;;27.49;25.25;102056.66;5058982;28;780;-37
2020/12/22 01:27:58;;;;;;;;;;;;;;;26.98;25.93;102062.50;5059356;28;780;-37
2020/12/22 01:30:23;;;;;;;;;;;;;;;27.62;25.29;102056.28;5059105;28;839;-39
2020/12/22 01:32:50;;;;;;;;;;;;;;;27.75;24.92;102049.66;5059295;28;733;-39
2020/12/22 01:35:15;;;;;;;;;;;;;;;27.79;24.87;102050.19;5058447;28;1035;-39
2020/12/22 01:37:40;;;;;;;;;;;;;;;27.45;25.32;102047.16;5058996;28;1975;-39
2020/12/22 01:40:05;;;;;;;;;;;;;;;27.12;25.75;102041.41;5058065;28;1004;-38
2020/12/22 01:42:31;;;;;;;;;;;;;;;27.85;24.77;102038.75;5058739;28;764;-39
2020/12/22 01:44:56;;;;;;;;;;;;;;;27.98;24.47;102039.19;5072619;28;1117;-39
2020/12/22 01:47:21;;;;;;;;;;;;;;;27.55;25.12;102038.97;5078747;28;846;-39
2020/12/22 01:49:46;;;;;;;;;;;;;;;27.31;25.37;102043.13;5078497;28;1006;-34
2020/12/22 01:52:12;;;;;;;;;;;;;;;27.54;25.30;102042.69;5058956;28;945;-40
2020/12/22 01:54:37;;;;;;;;;;;;;;;27.93;24.52;102044.22;5058489;28;827;-40
2020/12/22 01:57:08;;;;;;;;;;;;;;;27.82;24.74;102037.22;5058569;28;783;-40
2020/12/22 01:59:34;;;;;;;;;;;;;;;27.41;25.44;102036.81;5058262;28;1898;-40
2020/12/22 02:01:59;;;;;;;;;;;;;;;27.09;25.97;102041.72;5058389;28;932;-39
2020/12/22 02:04:24;;;;;;;;;;;;;;;27.73;25.09;102043.53;5058394;28;736;-40
2020/12/22 02:06:49;;;;;;;;;;;;;;;27.94;24.55;102039.66;5058275;28;936;-39
2020/12/22 02:09:15;;;;;;;;;;;;;;;27.59;25.35;102039.53;5058183;28;771;-39
2020/12/22 02:11:40;;;;;;;;;;;;;;;27.42;25.33;102042.06;5058261;28;732;-40
2020/12/22 02:14:06;;;;;;;;;;;;;;;27.22;26.06;102042.22;5058328;28;875;-40
2020/12/22 02:16:31;;;;;;;;;;;;;;;27.75;25.24;102042.41;5058421;28;790;-40
2020/12/22 02:18:57;;;;;;;;;;;;;;;27.75;25.14;102038.84;5057840;28;1955;-40
2020/12/22 02:21:22;;;;;;;;;;;;;;;27.56;25.35;102039.84;5057493;28;987;-40
2020/12/22 02:23:52;;;;;;;;;;;;;;;27.39;25.70;102036.97;5058264;28;780;-40
2020/12/22 02:26:20;;;;;;;;;;;;;;;27.67;25.13;102041.44;5057915;28;823;-40
2020/12/22 02:28:45;;;;;;;;;;;;;;;27.90;24.80;102051.78;5058032;28;723;-40
2020/12/22 02:31:10;;;;;;;;;;;;;;;27.65;25.44;102049.69;5057919;28;828;-40
2020/12/22 02:33:36;;;;;;;;;;;;;;;27.40;25.51;102044.06;5057995;28;759;-40
2020/12/22 02:36:01;;;;;;;;;;;;;;;26.46;27.21;102038.72;5057812;28;1022;-39
2020/12/22 02:38:26;;;;;;;;;;;;;;;27.31;25.88;102043.13;5057697;28;1906;-39
2020/12/22 02:40:51;;;;;;;;;;;;;;;27.95;25.13;102041.34;5057652;28;733;-39
2020/12/22 02:43:17;;;;;;;;;;;;;;;27.61;25.17;102048.34;5057993;28;875;-39
2020/12/22 02:45:42;;;;;;;;;;;;;;;27.29;25.88;102047.00;5077402;28;1088;-39
2020/12/22 02:48:16;;;;;;;;;;;;;;;26.19;27.56;102035.78;5077703;28;768;-39
2020/12/22 02:50:42;;;;;;;;;;;;;;;27.38;25.77;102041.50;5069572;28;954;-39
2020/12/22 02:53:07;;;;;;;;;;;;;;;27.67;25.19;102036.03;5056620;28;752;-39
2020/12/22 02:55:32;;;;;;;;;;;;;;;27.41;25.57;102039.53;5057017;28;858;-39
2020/12/22 02:57:58;;;;;;;;;;;;;;;26.76;26.70;102031.31;5056906;28;1947;-38
2020/12/22 03:00:23;;;;;;;;;;;;;;;27.58;25.75;102035.97;5057821;28;761;-39
2020/12/22 03:02:48;;;;;;;;;;;;;;;27.83;25.01;102046.16;5057586;28;784;-39
2020/12/22 03:05:14;;;;;;;;;;;;;;;27.68;25.42;102043.13;5056966;28;998;-38
2020/12/22 03:07:39;;;;;;;;;;;;;;;27.41;25.73;102039.53;5057272;28;837;-39
2020/12/22 03:10:06;;;;;;;;;;;;;;;27.33;25.97;102034.84;5057135;28;840;-38
2020/12/22 03:12:31;;;;;;;;;;;;;;;27.38;25.88;102037.97;5057259;28;825;-38
2020/12/22 03:14:56;;;;;;;;;;;;;;;27.81;25.29;102040.91;5057222;28;820;-39
2020/12/22 03:17:21;;;;;;;;;;;;;;;27.69;25.34;102043.03;5057289;28;713;-38
2020/12/22 03:19:47;;;;;;;;;;;;;;;27.45;25.61;102041.75;5056357;28;1974;-38
2020/12/22 03:22:12;;;;;;;;;;;;;;;26.85;26.63;102034.97;5056887;28;808;-38
2020/12/22 03:24:37;;;;;;;;;;;;;;;27.61;25.47;102043.75;5057222;28;788;-38
2020/12/22 03:27:03;;;;;;;;;;;;;;;27.94;25.09;102045.06;5056705;28;800;-38
2020/12/22 03:29:28;;;;;;;;;;;;;;;27.79;24.99;102047.50;5056580;28;793;-38
2020/12/22 03:31:53;;;;;;;;;;;;;;;27.40;25.83;102041.38;5056658;28;764;-38
2020/12/22 03:34:18;;;;;;;;;;;;;;;26.66;26.89;102050.25;5056615;28;895;-38
2020/12/22 03:36:44;;;;;;;;;;;;;;;27.69;25.57;102053.00;5056540;28;955;-38
2020/12/22 03:39:09;;;;;;;;;;;;;;;27.84;25.33;102059.53;5056355;28;1973;-40
2020/12/22 03:41:34;;;;;;;;;;;;;;;27.69;25.42;102059.25;5056637;28;820;-38
2020/12/22 03:44:00;;;;;;;;;;;;;;;27.32;25.78;102052.09;5062440;28;1211;-40
2020/12/22 03:46:26;;;;;;;;;;;;;;;26.27;27.64;102054.78;5076362;28;812;-39
2020/12/22 03:48:51;;;;;;;;;;;;;;;27.53;25.82;102049.09;5076687;28;767;-40
2020/12/22 03:51:16;;;;;;;;;;;;;;;27.26;25.95;102053.53;5063626;28;950;-40
2020/12/22 03:53:42;;;;;;;;;;;;;;;27.19;26.20;102047.06;5056125;28;744;-40
2020/12/22 03:56:07;;;;;;;;;;;;;;;27.37;25.83;102049.78;5056777;28;815;-40
2020/12/22 03:58:32;;;;;;;;;;;;;;;27.31;25.76;102047.69;5056723;28;1914;-40
2020/12/22 04:00:58;;;;;;;;;;;;;;;27.62;25.80;102042.78;5056153;28;787;-39
2020/12/22 04:03:25;;;;;;;;;;;;;;;27.84;25.40;102048.69;5056455;28;807;-39
2020/12/22 04:05:50;;;;;;;;;;;;;;;27.49;25.50;102051.25;5055760;28;952;-41
2020/12/22 04:08:15;;;;;;;;;;;;;;;27.10;26.23;102046.09;5056087;28;907;-38
2020/12/22 04:10:40;;;;;;;;;;;;;;;27.50;25.80;102044.00;5056542;28;768;-39
2020/12/22 04:13:06;;;;;;;;;;;;;;;27.67;24.46;102036.88;5056373;28;807;-41
2020/12/22 04:15:31;;;;;;;;;;;;;;;26.70;25.97;102040.03;5056097;28;944;-38
2020/12/22 04:17:56;;;;;;;;;;;;;;;24.20;24.05;102036.28;5056065;28;1905;-40
2020/12/22 04:20:21;;;;;;;;;;;;;;;22.63;24.17;102031.91;5055730;28;1290;-39
2020/12/22 04:22:47;;;;;;;;;;;;;;;22.44;24.11;102033.31;5055972;28;751;-34
2020/12/22 04:25:12;;;;;;;;;;;;;;;21.94;24.75;102033.56;5068546;28;894;-34
2020/12/22 04:27:37;;;;;;;;;;;;;;;21.49;25.59;102037.69;5074517;28;909;-35
2020/12/22 04:30:03;;;;;;;;;;;;;;;21.33;25.22;102035.31;5075386;28;813;-37
2020/12/22 04:32:28;;;;;;;;;;;;;;;21.41;24.74;102033.78;5075529;28;848;-36
2020/12/22 04:34:54;;;;;;;;;;;;;;;21.03;25.96;102030.25;5074233;28;879;-36
2020/12/22 04:37:19;;;;;;;;;;;;;;;21.26;24.84;102030.41;5055488;28;820;-36
2020/12/22 04:39:44;;;;;;;;;;;;;;;23.07;24.51;102033.84;5055728;28;1963;-35
2020/12/22 04:42:10;;;;;;;;;;;;;;;24.60;22.92;102037.34;5055951;28;803;-39
2020/12/22 04:44:35;;;;;;;;;;;;;;;25.19;22.00;102042.13;5048661;28;1274;-40
2020/12/22 04:47:00;;;;;;;;;;;;;;;25.47;21.45;102045.00;5075562;28;867;-40
2020/12/22 04:49:26;;;;;;;;;;;;;;;25.79;20.96;102046.59;5075897;28;771;-42
2020/12/22 04:51:52;;;;;;;;;;;;;;;25.91;21.01;102050.00;5040381;28;971;-42
2020/12/22 04:54:18;;;;;;;;;;;;;;;23.87;21.69;102046.22;5055810;28;752;-37
2020/12/22 04:56:44;;;;;;;;;;;;;;;22.19;23.76;102045.09;5062543;28;877;-33
2020/12/22 04:59:09;;;;;;;;;;;;;;;23.52;22.37;102049.03;5073105;28;1901;-39
2020/12/22 05:01:34;;;;;;;;;;;;;;;24.96;21.52;102050.41;5074748;28;1267;-38
2020/12/22 05:03:59;;;;;;;;;;;;;;;25.39;21.19;102045.69;5056712;28;1486;-42
2020/12/22 05:06:25;;;;;;;;;;;;;;;24.82;21.45;102048.91;5067008;28;970;-44
2020/12/22 05:08:50;;;;;;;;;;;;;;;24.32;21.40;102045.13;5075443;28;918;-40
2020/12/22 05:11:16;;;;;;;;;;;;;;;22.55;22.99;102042.34;5075485;28;756;-37
2020/12/22 05:13:41;;;;;;;;;;;;;;;21.55;24.01;102033.72;5075337;28;812;-35
2020/12/22 05:16:07;;;;;;;;;;;;;;;19.57;25.48;102044.47;5077769;28;788;-34
2020/12/22 05:18:32;;;;;;;;;;;;;;;17.49;29.20;102039.97;5060968;28;1898;-34
2020/12/22 05:20:58;;;;;;;;;;;;;;;19.00;27.28;102038.25;5069030;28;966;-37
2020/12/22 05:23:23;;;;;;;;;;;;;;;21.04;24.19;102031.97;5040991;28;1152;-40
2020/12/22 05:25:49;;;;;;;;;;;;;;;18.30;26.91;102037.19;5059961;28;876;-41
2020/12/22 05:28:15;;;;;;;;;;;;;;;16.71;30.60;102034.38;5079126;28;784;-41
2020/12/22 05:30:41;;;;;;;;;;;;;;;16.60;31.07;102042.03;5078653;28;863;-38
2020/12/22 05:33:06;;;;;;;;;;;;;;;19.58;26.62;102048.84;5079249;28;806;-38
2020/12/22 05:35:38;;;;;;;;;;;;;;;22.73;24.41;102048.97;5068600;28;860;-39
2020/12/22 05:38:04;;;;;;;;;;;;;;;23.95;23.10;102051.78;5058659;28;1910;-31
2020/12/22 05:40:29;;;;;;;;;;;;;;;24.86;22.41;102060.28;5058767;28;743;-35
2020/12/22 05:42:55;;;;;;;;;;;;;;;25.47;21.98;102063.88;5058856;28;876;-39
2020/12/22 05:45:20;;;;;;;;;;;;;;;26.02;21.43;102064.31;5075012;28;1460;-34
2020/12/22 05:47:45;;;;;;;;;;;;;;;26.57;20.96;102070.06;5078588;28;826;-43
2020/12/22 05:50:10;;;;;;;;;;;;;;;26.86;20.69;102075.31;5074688;28;1430;-35
2020/12/22 05:52:36;;;;;;;;;;;;;;;27.13;20.55;102081.78;5058191;28;776;-34
2020/12/22 05:55:01;;;;;;;;;;;;;;;27.20;20.56;102081.16;5040810;28;807;-33
2020/12/22 05:57:27;;;;;;;;;;;;;;;27.13;20.88;102078.22;5058483;28;882;-41
2020/12/22 05:59:52;;;;;;;;;;;;;;;27.13;21.20;102076.38;5057739;28;1910;-39
2020/12/22 06:02:36;;;;;;;;;;;;;;;27.35;21.22;102076.94;5058710;28;859;-40
2020/12/22 06:05:01;;;;;;;;;;;;;;;27.56;21.23;102080.38;5040403;28;1010;-41
2020/12/22 06:07:26;;;;;;;;;;;;;;;27.63;21.49;102079.59;5058512;28;796;-40
2020/12/22 06:09:52;;;;;;;;;;;;;;;28.04;21.09;102082.84;5058150;28;764;-40
2020/12/22 06:12:17;;;;;;;;;;;;;;;28.33;20.89;102081.72;5058334;28;862;-42
2020/12/22 06:14:44;;;;;;;;;;;;;;;28.46;20.51;102086.72;5040398;28;818;-37
2020/12/22 06:17:10;;;;;;;;;;;;;;;28.47;20.57;102085.72;5058501;28;780;-35
2020/12/22 06:19:36;;;;;;;;;;;;;;;27.97;21.34;102078.06;5058015;28;1969;-43
2020/12/22 06:22:01;;;;;;;;;;;;;;;27.68;22.05;102078.28;5057398;28;987;-37
2020/12/22 06:24:26;;;;;;;;;;;;;;;28.19;21.41;102075.00;5058140;28;796;-37
2020/12/22 06:27:01;;;;;;;;;;;;;;;28.39;21.32;102083.81;5040145;28;768;-37
2020/12/22 06:29:26;;;;;;;;;;;;;;;28.38;21.88;102086.69;5057560;28;756;-44
2020/12/22 06:31:52;;;;;;;;;;;;;;;28.54;21.57;102081.38;5057846;28;774;-39
2020/12/22 06:34:23;;;;;;;;;;;;;;;28.81;21.30;102075.91;5057837;28;800;-44
2020/12/22 06:37:00;;;;;;;;;;;;;;;28.60;21.81;102069.03;5057146;28;964;-43
2020/12/22 06:39:46;;;;;;;;;;;;;;;28.19;21.86;102075.00;5057748;28;1909;-40
2020/12/22 06:42:31;;;;;;;;;;;;;;;27.54;23.28;102072.41;5057628;28;1809;-40
2020/12/22 06:45:15;;;;;;;;;;;;;;;27.36;23.38;102073.25;5070826;28;1757;-42
2020/12/22 06:47:40;;;;;;;;;;;;;;;27.97;23.13;102075.38;5077590;28;804;-40
2020/12/22 06:50:06;;;;;;;;;;;;;;;28.71;22.01;102079.56;5073946;28;970;-43
2020/12/22 06:52:31;;;;;;;;;;;;;;;28.95;21.66;102063.59;5057443;28;811;-35
2020/12/22 06:54:57;;;;;;;;;;;;;;;29.06;21.55;102068.75;5057183;28;840;-41
2020/12/22 06:57:40;;;;;;;;;;;;;;;28.42;21.29;102069.97;5057453;28;744;-34
2020/12/22 07:00:06;;;;;;;;;;;;;;;27.90;22.06;102066.16;5057321;28;868;-41
2020/12/22 07:02:32;;;;;;;;;;;;;;;28.19;21.84;102069.59;5057471;28;741;-36
2020/12/22 07:04:57;;;;;;;;;;;;;;;28.34;21.55;102070.72;5056911;28;1022;-41
2020/12/22 07:07:23;;;;;;;;;;;;;;;28.45;21.57;102075.03;5072564;28;823;-41
2020/12/22 07:09:48;;;;;;;;;;;;;;;28.76;21.45;102065.53;5058272;28;868;-41
2020/12/22 07:12:19;;;;;;;;;;;;;;;28.98;21.37;102071.41;5076629;28;828;-41
2020/12/22 07:14:46;;;;;;;;;;;;;;;29.05;21.59;102066.19;5076928;28;789;-44
2020/12/22 07:17:18;;;;;;;;;;;;;;;29.40;21.11;102069.69;5076607;28;793;-39
2020/12/22 07:19:47;;;;;;;;;;;;;;;29.54;21.23;102061.91;5076398;28;1901;-43
2020/12/22 07:22:16;;;;;;;;;;;;;;;29.31;21.49;102068.81;5056736;28;847;-35
2020/12/22 07:24:41;;;;;;;;;;;;;;;28.78;21.96;102073.53;5057027;28;850;-35
2020/12/22 07:27:07;;;;;;;;;;;;;;;28.98;21.97;102065.19;5056962;28;895;-37
2020/12/22 07:29:33;;;;;;;;;;;;;;;29.20;22.16;102069.13;5056255;28;765;-43
2020/12/22 07:31:58;;;;;;;;;;;;;;;29.29;21.87;102068.16;5056578;28;815;-45
2020/12/22 07:34:23;;;;;;;;;;;;;;;29.36;21.79;102071.03;5039058;28;752;-44
2020/12/22 07:36:49;;;;;;;;;;;;;;;29.56;21.71;102076.16;5068054;28;1011;-36
2020/12/22 07:39:14;;;;;;;;;;;;;;;29.46;21.87;102077.13;5075674;28;1905;-42
2020/12/22 07:41:39;;;;;;;;;;;;;;;28.95;22.30;102071.72;5076510;28;735;-40
2020/12/22 07:44:14;;;;;;;;;;;;;;;28.08;23.66;102076.97;5076425;28;1140;-43
2020/12/22 07:46:40;;;;;;;;;;;;;;;27.76;24.42;102083.78;5076309;28;815;-40
2020/12/22 07:49:06;;;;;;;;;;;;;;;27.94;24.33;102081.09;5076591;28;830;-41
2020/12/22 07:51:31;;;;;;;;;;;;;;;28.43;23.80;102078.91;5061482;28;959;-37
2020/12/22 07:54:06;;;;;;;;;;;;;;;29.23;22.64;102076.09;5056173;28;864;-42
2020/12/22 07:56:35;;;;;;;;;;;;;;;29.32;22.23;102070.53;5056406;28;756;-40
2020/12/22 07:59:07;;;;;;;;;;;;;;;29.01;22.66;102071.09;5056014;28;1955;-41
2020/12/22 08:01:39;;;;;;;;;;;;;;;27.92;24.35;102074.13;5056144;28;755;-34
2020/12/22 08:04:13;;;;;;;;;;;;;;;29.06;23.19;102074.16;5056377;28;744;-40
2020/12/22 08:06:39;;;;;;;;;;;;;;;29.62;22.39;102070.09;5056115;28;987;-41
2020/12/22 08:09:05;;;;;;;;;;;;;;;29.03;23.03;102073.66;5056116;28;784;-41
2020/12/22 08:11:30;;;;;;;;;;;;;;;29.72;22.41;102066.34;5056208;28;776;-42
2020/12/22 08:13:55;;;;;;;;;;;;;;;29.77;22.11;102063.97;5038215;28;811;-36
2020/12/22 08:16:20;;;;;;;;;;;;;;;29.40;22.33;102057.97;5038300;28;784;-37
2020/12/22 08:18:46;;;;;;;;;;;;;;;28.62;23.51;102068.88;5034833;28;1976;-41
2020/12/22 08:21:11;;;;;;;;;;;;;;;28.36;24.32;102059.78;5035068;28;987;-39
2020/12/22 08:23:37;;;;;;;;;;;;;;;28.27;24.31;102061.53;5035286;28;738;-42
2020/12/22 08:26:03;;;;;;;;;;;;;;;28.43;24.43;102051.84;5035396;28;772;-35
2020/12/22 08:28:28;;;;;;;;;;;;;;;29.38;23.14;102052.72;5035784;28;784;-36
2020/12/22 08:30:54;;;;;;;;;;;;;;;29.73;22.31;102057.22;5036139;28;734;-41
2020/12/22 08:33:20;;;;;;;;;;;;;;;28.37;22.11;102056.06;5035859;28;815;-37
2020/12/22 08:35:46;;;;;;;;;;;;;;;28.24;22.60;102051.88;5035605;28;990;-43
2020/12/22 08:38:24;;;;;;;;;;;;;;;27.95;23.73;102047.63;5036322;28;1906;-34
2020/12/22 08:40:49;;;;;;;;;;;;;;;28.73;22.86;102055.03;5035626;28;856;-40
2020/12/22 08:43:15;;;;;;;;;;;;;;;28.78;22.95;102050.00;5034334;28;840;-41
2020/12/22 08:45:43;;;;;;;;;;;;;;;29.31;22.26;102044.41;5055587;28;1192;-34
2020/12/22 08:48:08;;;;;;;;;;;;;;;29.64;22.05;102048.22;5055908;28;756;-35
2020/12/22 08:50:45;;;;;;;;;;;;;;;29.60;21.85;102045.00;5050074;28;946;-40
2020/12/22 08:53:14;;;;;;;;;;;;;;;29.30;22.15;102041.88;5039971;28;817;-35
2020/12/22 08:55:39;;;;;;;;;;;;;;;28.65;23.27;102047.75;5039752;28;805;-37
2020/12/22 08:58:05;;;;;;;;;;;;;;;28.20;24.03;102044.22;5039386;28;1902;-39
2020/12/22 09:00:30;;;;;;;;;;;;;;;28.40;23.69;102044.03;5039753;28;741;-36
2020/12/22 09:02:55;;;;;;;;;;;;;;;28.50;23.83;102041.22;5039460;28;859;-39
2020/12/22 09:05:21;;;;;;;;;;;;;;;29.26;22.61;102033.22;5039229;28;951;-35
2020/12/22 09:07:56;;;;;;;;;;;;;;;29.05;22.54;102037.25;5039325;28;820;-41
2020/12/22 09:10:21;;;;;;;;;;;;;;;28.38;23.74;102030.69;5039352;28;863;-41
2020/12/22 09:12:46;;;;;;;;;;;;;;;28.19;23.57;102029.03;5039422;28;780;-40
2020/12/22 09:15:11;;;;;;;;;;;;;;;28.30;23.98;102030.59;5039495;28;890;-41
2020/12/22 09:17:37;;;;;;;;;;;;;;;29.14;23.06;102024.59;5039130;28;768;-39
2020/12/22 09:20:03;;;;;;;;;;;;;;;29.28;22.54;102022.25;5054683;28;1971;-41
2020/12/22 09:22:30;;;;;;;;;;;;;;;29.01;22.49;102016.09;5059260;28;784;-37
2020/12/22 09:25:04;;;;;;;;;;;;;;;29.06;23.29;102013.72;5058776;28;820;-40
2020/12/22 09:27:29;;;;;;;;;;;;;;;29.41;21.96;102003.59;5058688;28;868;-35
2020/12/22 09:29:55;;;;;;;;;;;;;;;29.61;22.29;102005.19;5059078;28;755;-39
2020/12/22 09:32:20;;;;;;;;;;;;;;;29.82;21.98;102010.06;5058915;28;756;-41
2020/12/22 09:34:45;;;;;;;;;;;;;;;29.63;21.74;102000.44;5058978;28;964;-40
2020/12/22 09:37:11;;;;;;;;;;;;;;;29.35;22.09;102004.28;5059244;28;811;-40
2020/12/22 09:39:36;;;;;;;;;;;;;;;28.36;23.64;102005.66;5058491;28;1932;-42
2020/12/22 09:42:02;;;;;;;;;;;;;;;28.40;24.07;101998.03;5059048;28;778;-41
2020/12/22 09:44:27;;;;;;;;;;;;;;;29.55;22.18;101993.97;5068377;28;1101;-38
2020/12/22 09:46:53;;;;;;;;;;;;;;;29.85;21.66;102000.72;5078726;28;779;-35
2020/12/22 09:49:18;;;;;;;;;;;;;;;29.21;21.66;101990.38;5078708;28;811;-35
2020/12/22 09:51:44;;;;;;;;;;;;;;;28.88;22.46;101986.75;5062012;28;943;-35
2020/12/22 09:54:09;;;;;;;;;;;;;;;28.05;23.81;101982.59;5058510;28;740;-39
2020/12/22 09:56:34;;;;;;;;;;;;;;;28.21;23.97;101981.03;5058288;28;575;-36
2020/12/22 09:59:00;;;;;;;;;;;;;;;28.25;23.62;101990.50;5058506;28;1963;-42
2020/12/22 10:01:25;;;;;;;;;;;;;;;29.15;22.68;101974.78;5057639;28;855;-40
2020/12/22 10:03:50;;;;;;;;;;;;;;;29.50;21.93;101974.63;5058519;28;735;-39
2020/12/22 10:06:16;;;;;;;;;;;;;;;29.34;22.18;101970.91;5066331;28;1207;-43
2020/12/22 10:08:42;;;;;;;;;;;;;;;28.76;23.20;101970.78;5078538;28;812;-38
2020/12/22 10:11:07;;;;;;;;;;;;;;;28.95;20.75;101975.06;5077603;28;1497;-36
2020/12/22 10:13:32;;;;;;;;;;;;;;;29.05;20.53;101966.81;5077666;28;1496;-40
2020/12/22 10:16:00;;;;;;;;;;;;;;;29.11;21.01;101961.75;5078463;28;886;-41
2020/12/22 10:18:25;;;;;;;;;;;;;;;29.10;21.23;101960.91;5077821;28;1902;-41
2020/12/22 10:20:51;;;;;;;;;;;;;;;29.19;20.78;101965.31;5068730;28;987;-36
2020/12/22 10:23:16;;;;;;;;;;;;;;;28.58;21.90;101970.88;5058032;28;752;-40
2020/12/22 10:25:41;;;;;;;;;;;;;;;28.57;21.90;101963.78;5058006;28;824;-35
2020/12/22 10:28:06;;;;;;;;;;;;;;;28.70;21.73;101963.31;5058181;28;792;-40
2020/12/22 10:30:32;;;;;;;;;;;;;;;28.67;22.00;101961.78;5057887;28;820;-35
2020/12/22 10:32:57;;;;;;;;;;;;;;;28.92;21.55;101959.16;5057892;28;1481;-41
2020/12/22 10:35:22;;;;;;;;;;;;;;;28.98;21.70;101957.66;5072373;28;856;-35
2020/12/22 10:37:47;;;;;;;;;;;;;;;29.06;21.44;101952.25;5071029;28;1957;-36
2020/12/22 10:40:13;;;;;;;;;;;;;;;28.55;22.01;101950.41;5077427;28;1477;-42
2020/12/22 10:42:38;;;;;;;;;;;;;;;28.19;22.74;101946.00;5076559;28;1338;-36
2020/12/22 10:45:03;;;;;;;;;;;;;;;28.01;23.71;101954.16;5077265;28;1151;-33
2020/12/22 10:47:30;;;;;;;;;;;;;;;28.72;22.97;101945.03;5077219;28;744;-36
2020/12/22 10:49:55;;;;;;;;;;;;;;;28.92;22.98;101942.91;5075684;28;963;-39
2020/12/22 10:52:21;;;;;;;;;;;;;;;29.13;22.51;101946.19;5057502;28;808;-33
2020/12/22 10:54:46;;;;;;;;;;;;;;;29.22;22.41;101942.44;5057253;28;826;-33
2020/12/22 10:57:11;;;;;;;;;;;;;;;29.01;22.60;101934.81;5057628;28;784;-32
2020/12/22 10:59:36;;;;;;;;;;;;;;;28.38;23.29;101937.84;5056929;28;1918;-36
2020/12/22 11:02:02;;;;;;;;;;;;;;;27.88;24.88;101935.66;5061955;28;833;-34
2020/12/22 11:04:27;;;;;;;;;;;;;;;28.72;23.32;101935.06;5077145;28;763;-41
2020/12/22 11:07:11;;;;;;;;;;;;;;;28.99;22.98;101937.69;5059721;28;974;-36
2020/12/22 11:09:36;;;;;;;;;;;;;;;29.13;22.96;101933.47;5065086;28;822;-45
2020/12/22 11:12:01;;;;;;;;;;;;;;;29.39;22.91;101937.03;5076750;28;820;-40
2020/12/22 11:14:26;;;;;;;;;;;;;;;29.51;22.78;101935.66;5076734;28;751;-41
2020/12/22 11:16:52;;;;;;;;;;;;;;;29.41;22.48;101941.25;5076807;28;776;-44
2020/12/22 11:19:17;;;;;;;;;;;;;;;29.03;23.42;101938.22;5076605;28;1918;-43
2020/12/22 11:21:43;;;;;;;;;;;;;;;29.03;23.79;101930.09;5060448;28;971;-36
2020/12/22 11:24:08;;;;;;;;;;;;;;;29.29;23.42;101926.38;5073439;28;1493;-36
2020/12/22 11:26:34;;;;;;;;;;;;;;;29.54;23.08;101931.78;5076533;28;829;-35
2020/12/22 11:28:59;;;;;;;;;;;;;;;29.74;22.85;101926.00;5077081;28;807;-35
2020/12/22 11:31:24;;;;;;;;;;;;;;;29.36;23.25;101923.81;5076940;28;811;-35
2020/12/22 11:33:49;;;;;;;;;;;;;;;29.10;23.50;101917.53;5076560;28;744;-39
2020/12/22 11:36:15;;;;;;;;;;;;;;;28.40;24.77;101917.72;5064130;28;1018;-48
2020/12/22 11:38:41;;;;;;;;;;;;;;;28.52;24.27;101920.97;5071763;28;1981;-36
2020/12/22 11:41:06;;;;;;;;;;;;;;;28.58;24.11;101914.88;5076324;28;732;-41
2020/12/22 11:43:31;;;;;;;;;;;;;;;29.19;23.60;101915.69;5077005;28;1190;-36
2020/12/22 11:45:57;;;;;;;;;;;;;;;29.26;23.45;101908.56;5076773;28;751;-42
2020/12/22 11:48:24;;;;;;;;;;;;;;;28.96;23.64;101919.03;5076357;28;816;-33
2020/12/22 11:50:53;;;;;;;;;;;;;;;29.16;23.74;101908.72;5067453;28;947;-45
2020/12/22 11:53:18;;;;;;;;;;;;;;;29.63;22.93;101908.25;5056462;28;772;-39
2020/12/22 11:55:44;;;;;;;;;;;;;;;29.86;22.65;101902.94;5056370;28;1502;-36
2020/12/22 11:58:09;;;;;;;;;;;;;;;29.45;23.33;101903.81;5067897;28;1906;-37
2020/12/22 12:00:34;;;;;;;;;;;;;;;29.26;23.17;101903.16;5076442;28;764;-40
2020/12/22 12:03:00;;;;;;;;;;;;;;;28.63;24.39;101900.84;5076277;28;807;-35
2020/12/22 12:05:25;;;;;;;;;;;;;;;29.29;23.62;101901.97;5070686;28;958;-39
2020/12/22 12:07:50;;;;;;;;;;;;;;;29.45;23.37;101899.25;5056566;28;772;-36
2020/12/22 12:10:15;;;;;;;;;;;;;;;29.78;22.78;101892.94;5056166;28;820;-42
2020/12/22 12:12:41;;;;;;;;;;;;;;;29.51;23.13;101897.69;5056658;28;804;-44
2020/12/22 12:15:06;;;;;;;;;;;;;;;29.15;23.49;101895.34;5056254;28;753;-44
2020/12/22 12:17:31;;;;;;;;;;;;;;;29.54;23.16;101894.69;5056106;28;827;-44
2020/12/22 12:19:56;;;;;;;;;;;;;;;29.87;22.60;101893.78;5055603;28;1965;-36
2020/12/22 12:22:22;;;;;;;;;;;;;;;29.81;22.86;101898.00;5056073;28;756;-37
2020/12/22 12:24:47;;;;;;;;;;;;;;;29.57;22.67;101893.47;5061995;28;597;-38
2020/12/22 12:27:12;;;;;;;;;;;;;;;29.09;22.98;101900.44;5080504;28;787;-38
2020/12/22 12:29:37;;;;;;;;;;;;;;;28.54;24.78;101897.28;5080182;28;779;-37
2020/12/22 12:32:03;;;;;;;;;;;;;;;29.41;23.37;101895.19;5080316;28;835;-38
2020/12/22 12:34:28;;;;;;;;;;;;;;;29.71;23.31;101897.38;5080706;28;791;-44
2020/12/22 12:36:53;;;;;;;;;;;;;;;30.00;22.97;101905.94;5062077;28;963;-36
2020/12/22 12:39:19;;;;;;;;;;;;;;;29.89;22.73;101905.31;5059954;28;1969;-36
2020/12/22 12:41:46;;;;;;;;;;;;;;;29.60;23.03;101903.16;5060069;28;788;-44
2020/12/22 12:44:12;;;;;;;;;;;;;;;29.58;23.51;101906.00;5066841;28;1199;-39
2020/12/22 12:46:37;;;;;;;;;;;;;;;29.84;23.06;101904.97;5080056;28;780;-37
2020/12/22 12:49:02;;;;;;;;;;;;;;;30.10;22.85;101900.28;5079935;28;879;-39